createdAt,value
2023-02-17T00:01:15.430Z,15.10
2023-02-17T00:04:18.415Z,17.30
2023-02-17T00:07:21.406Z,16.40
2023-02-17T00:10:24.301Z,12.20
2023-02-17T00:13:27.350Z,17.30
2023-02-17T00:16:30.334Z,17.00
2023-02-17T00:19:33.281Z,16.30
2023-02-17T00:22:36.466Z,13.20
2023-02-17T00:25:39.932Z,14.80
2023-02-17T00:28:43.323Z,10.00
2023-02-17T00:31:47.219Z,15.40
2023-02-17T00:34:52.587Z,16.80
2023-02-17T00:37:55.564Z,13.50
2023-02-17T00:40:58.505Z,16.80
2023-02-17T00:44:01.589Z,10.60
2023-02-17T00:47:05.160Z,12.00
2023-02-17T00:50:08.769Z,12.00
2023-02-17T00:53:11.703Z,16.90
2023-02-17T00:56:15.533Z,15.60
2023-02-17T00:59:18.405Z,16.20
2023-02-17T01:02:21.345Z,13.40
2023-02-17T01:05:24.348Z,14.80
2023-02-17T01:08:27.335Z,17.00
2023-02-17T01:11:32.258Z,16.80
2023-02-17T01:14:35.200Z,13.50
2023-02-17T01:17:38.088Z,18.70
2023-02-17T01:20:42.083Z,13.20
2023-02-17T01:23:45.147Z,12.30
2023-02-17T01:26:48.141Z,9.90
2023-02-17T01:29:51.070Z,7.90
2023-02-17T01:32:54.015Z,10.70
2023-02-17T01:36:02.561Z,16.20
2023-02-17T01:39:05.693Z,13.10
2023-02-17T01:42:17.269Z,11.70
2023-02-17T01:45:20.118Z,9.30
2023-02-17T01:48:27.342Z,9.40
2023-02-17T01:51:36.134Z,11.20
2023-02-17T01:54:47.476Z,15.40
2023-02-17T01:57:54.092Z,11.80
2023-02-17T02:01:00.162Z,11.20
2023-02-17T02:04:06.207Z,13.40
2023-02-17T02:07:35.152Z,12.90
2023-02-17T02:10:50.139Z,15.50
2023-02-17T02:14:14.107Z,17.30
2023-02-17T02:18:00.743Z,14.70
2023-02-17T02:21:48.409Z,13.10
2023-02-17T02:26:17.025Z,10.80
2023-02-17T02:29:59.576Z,15.90
2023-02-17T02:33:58.941Z,10.10
2023-02-17T02:38:17.372Z,10.40
2023-02-17T02:42:02.890Z,11.60
2023-02-17T02:45:49.067Z,15.80
2023-02-17T02:49:32.476Z,17.10
2023-02-17T02:53:22.249Z,17.30
2023-02-17T02:57:18.015Z,17.70
2023-02-17T03:00:54.605Z,15.60
2023-02-17T03:04:53.180Z,17.00
2023-02-17T03:08:38.614Z,18.20
2023-02-17T03:12:06.069Z,16.70
2023-02-17T03:15:47.191Z,14.90
2023-02-17T03:19:29.942Z,14.90
2023-02-17T03:22:46.972Z,8.90
2023-02-17T03:29:06.338Z,9.70
2023-02-17T03:32:17.372Z,9.70
2023-02-17T03:35:39.815Z,8.70
2023-02-17T03:39:07.880Z,13.40
2023-02-17T03:42:28.694Z,8.10
2023-02-17T03:45:46.875Z,8.20
2023-02-17T03:49:14.457Z,13.60
2023-02-17T03:52:41.358Z,10.90
2023-02-17T03:55:59.768Z,13.80
2023-02-17T03:59:21.780Z,10.20
2023-02-17T04:02:32.531Z,9.30
2023-02-17T04:05:54.708Z,5.60
2023-02-17T04:09:13.318Z,9.80
2023-02-17T04:12:32.096Z,11.70
2023-02-17T04:15:51.569Z,9.80
2023-02-17T04:19:10.552Z,14.00
2023-02-17T04:22:29.750Z,14.90
2023-02-17T04:25:44.582Z,15.40
2023-02-17T04:29:04.591Z,10.30
2023-02-17T04:32:27.757Z,12.10
2023-02-17T04:35:50.518Z,13.70
2023-02-17T04:39:17.841Z,6.60
2023-02-17T04:42:36.411Z,4.60
2023-02-17T04:46:02.989Z,5.80
2023-02-17T04:49:30.240Z,7.20
2023-02-17T04:52:55.228Z,6.50
2023-02-17T04:56:21.980Z,11.10
2023-02-17T04:59:47.125Z,10.40
2023-02-17T05:03:11.788Z,8.10
2023-02-17T05:06:34.700Z,10.80
2023-02-17T05:09:58.658Z,9.20
2023-02-17T05:13:21.922Z,4.70
2023-02-17T05:16:43.611Z,10.80
2023-02-17T05:20:03.515Z,9.50
2023-02-17T05:23:30.776Z,10.90
2023-02-17T05:26:50.101Z,11.00
2023-02-17T05:30:21.143Z,4.90
2023-02-17T05:33:40.507Z,7.30
2023-02-17T05:37:02.171Z,7.80
2023-02-17T05:40:30.685Z,6.80
2023-02-17T05:43:56.519Z,5.30
2023-02-17T05:47:17.778Z,10.10
2023-02-17T05:50:40.159Z,4.30
2023-02-17T05:53:58.892Z,6.00
2023-02-17T05:57:21.717Z,5.60
2023-02-17T06:00:48.837Z,8.20
2023-02-17T06:04:10.298Z,6.90
2023-02-17T06:07:32.475Z,5.80
2023-02-17T06:10:52.725Z,6.30
2023-02-17T06:14:10.891Z,4.90
2023-02-17T06:17:29.619Z,7.80
2023-02-17T06:20:55.501Z,8.40
2023-02-17T06:24:18.798Z,6.40
2023-02-17T06:27:37.247Z,6.00
2023-02-17T06:30:56.546Z,7.30
2023-02-17T06:34:16.953Z,8.30
2023-02-17T06:37:36.902Z,7.00
2023-02-17T06:41:01.733Z,5.40
2023-02-17T06:44:21.403Z,9.50
2023-02-17T06:47:40.029Z,6.50
2023-02-17T06:50:50.690Z,5.90
2023-02-17T06:54:09.411Z,8.10
2023-02-17T06:57:32.912Z,5.70
2023-02-17T07:00:48.926Z,8.20
2023-02-17T07:04:12.489Z,8.50
2023-02-17T07:07:31.801Z,8.70
2023-02-17T07:10:51.182Z,6.20
2023-02-17T07:14:14.642Z,8.70
2023-02-17T07:17:35.970Z,7.50
2023-02-17T07:20:58.560Z,5.30
2023-02-17T07:24:18.218Z,7.10
2023-02-17T07:27:40.453Z,7.60
2023-02-17T07:31:09.689Z,5.10
2023-02-17T07:37:48.812Z,6.60
2023-02-17T07:41:08.765Z,8.80
2023-02-17T07:44:33.518Z,6.10
2023-02-17T07:47:58.271Z,8.60
2023-02-17T07:51:11.359Z,5.70
2023-02-17T07:54:30.302Z,7.10
2023-02-17T07:57:48.689Z,6.40
2023-02-17T08:01:16.670Z,5.90
2023-02-17T08:04:40.900Z,6.00
2023-02-17T08:08:21.299Z,5.60
2023-02-17T08:12:25.497Z,7.10
2023-02-17T08:15:51.136Z,7.00
2023-02-17T08:19:14.304Z,5.80
2023-02-17T08:22:39.548Z,5.30
2023-02-17T08:26:05.716Z,7.00
2023-02-17T08:29:31.573Z,6.10
2023-02-17T08:32:51.881Z,6.80
2023-02-17T08:36:12.431Z,7.20
2023-02-17T08:39:37.904Z,5.80
2023-02-17T08:43:03.669Z,8.20
2023-02-17T08:46:30.200Z,6.20
2023-02-17T08:50:05.932Z,7.70
2023-02-17T08:53:29.274Z,6.80
2023-02-17T08:56:49.065Z,5.80
2023-02-17T09:00:12.547Z,6.40
2023-02-17T09:03:30.267Z,5.60
2023-02-17T09:07:06.022Z,5.10
2023-02-17T09:10:16.955Z,4.90
2023-02-17T09:13:39.095Z,7.20
2023-02-17T09:17:06.007Z,6.30
2023-02-17T09:20:27.426Z,5.70
2023-02-17T09:23:58.562Z,5.60
2023-02-17T09:27:21.413Z,7.50
2023-02-17T09:30:43.135Z,6.80
2023-02-17T09:34:10.530Z,6.40
2023-02-17T09:37:30.068Z,7.30
2023-02-17T09:41:06.908Z,6.20
2023-02-17T09:44:36.150Z,6.30
2023-02-17T09:47:52.852Z,5.60
2023-02-17T09:51:32.395Z,5.20
2023-02-17T09:55:40.341Z,4.90
2023-02-17T09:59:22.561Z,7.30
2023-02-17T10:03:22.520Z,7.30
2023-02-17T10:07:10.953Z,7.30
2023-02-17T10:11:08.400Z,6.20
2023-02-17T10:15:38.463Z,6.00
2023-02-17T10:19:30.339Z,3.90
2023-02-17T10:22:55.163Z,6.50
2023-02-17T10:26:54.204Z,5.10
2023-02-17T10:31:02.862Z,4.40
2023-02-17T10:34:43.748Z,6.20
2023-02-17T10:38:08.132Z,6.70
2023-02-17T10:41:36.473Z,5.70
2023-02-17T10:45:15.767Z,6.60
2023-02-17T10:48:38.680Z,4.50
2023-02-17T10:52:22.342Z,8.20
2023-02-17T10:56:08.450Z,6.00
2023-02-17T10:59:52.230Z,7.70
2023-02-17T11:03:19.443Z,4.00
2023-02-17T11:06:44.949Z,6.20
2023-02-17T11:10:36.050Z,5.20
2023-02-17T11:14:21.014Z,5.10
2023-02-17T11:18:01.806Z,5.60
2023-02-17T11:21:27.888Z,6.70
2023-02-17T11:25:13.527Z,5.10
2023-02-17T11:28:30.513Z,6.50
2023-02-17T11:32:07.803Z,5.10
2023-02-17T11:36:06.536Z,4.90
2023-02-17T11:39:28.538Z,4.30
2023-02-17T11:43:00.752Z,5.20
2023-02-17T11:46:55.258Z,4.30
2023-02-17T11:50:41.827Z,4.50
2023-02-17T11:55:08.754Z,4.20
2023-02-17T11:58:46.960Z,5.10
2023-02-17T12:02:41.089Z,5.50
2023-02-17T12:06:40.256Z,4.30
2023-02-17T12:10:04.705Z,7.00
2023-02-17T12:13:27.743Z,4.00
2023-02-17T12:16:55.828Z,5.50
2023-02-17T12:20:53.076Z,6.00
2023-02-17T12:25:16.017Z,4.70
2023-02-17T12:32:25.354Z,4.30
2023-02-17T12:36:14.843Z,6.00
2023-02-17T12:40:21.477Z,3.80
2023-02-17T12:43:57.111Z,6.00
2023-02-17T12:47:20.348Z,3.60
2023-02-17T12:51:26.756Z,6.80
2023-02-17T12:55:22.653Z,6.60
2023-02-17T12:58:46.719Z,4.90
2023-02-17T13:02:24.089Z,5.70
2023-02-17T13:05:57.444Z,4.30
2023-02-17T13:09:42.978Z,4.40
2023-02-17T13:13:15.401Z,3.60
2023-02-17T13:17:08.887Z,5.80
2023-02-17T13:21:28.824Z,6.30
2023-02-17T13:24:58.795Z,3.10
2023-02-17T13:28:34.048Z,4.10
2023-02-17T13:32:37.811Z,5.00
2023-02-17T13:36:57.497Z,3.30
2023-02-17T13:40:41.817Z,5.10
2023-02-17T13:44:45.156Z,4.70
2023-02-17T13:48:15.784Z,5.80
2023-02-17T13:51:41.394Z,4.80
2023-02-17T13:55:24.285Z,3.90
2023-02-17T13:58:51.581Z,6.30
2023-02-17T14:02:30.385Z,3.10
2023-02-17T14:06:04.972Z,5.00
2023-02-17T14:09:43.491Z,5.00
2023-02-17T14:13:05.637Z,3.40
2023-02-17T14:17:05.912Z,3.80
2023-02-17T14:20:52.679Z,3.40
2023-02-17T14:24:32.177Z,2.80
2023-02-17T14:28:01.053Z,5.40
2023-02-17T14:31:18.943Z,2.10
2023-02-17T14:34:45.143Z,3.50
2023-02-17T14:38:10.409Z,2.60
2023-02-17T14:41:31.316Z,4.50
2023-02-17T14:45:00.367Z,3.70
2023-02-17T14:48:14.805Z,4.20
2023-02-17T14:51:34.362Z,3.10
2023-02-17T14:55:00.392Z,3.60
2023-02-17T14:58:24.483Z,4.60
2023-02-17T15:01:43.118Z,3.80
2023-02-17T15:05:02.074Z,3.70
2023-02-17T15:08:32.296Z,3.80
2023-02-17T15:12:12.628Z,4.10
2023-02-17T15:15:20.865Z,4.00
2023-02-17T15:18:42.600Z,4.30
2023-02-17T15:21:54.084Z,3.00
2023-02-17T15:25:17.458Z,1.80
2023-02-17T15:28:43.582Z,4.20
2023-02-17T15:31:57.987Z,3.90
2023-02-17T15:35:28.174Z,3.80
2023-02-17T15:39:16.180Z,2.70
2023-02-17T15:43:06.576Z,3.40
2023-02-17T15:47:05.815Z,4.70
2023-02-17T15:53:57.938Z,3.80
2023-02-17T15:57:25.512Z,3.90
2023-02-17T16:01:12.362Z,2.70
2023-02-17T16:04:36.005Z,4.00
2023-02-17T16:07:56.157Z,2.70
2023-02-17T16:11:16.236Z,3.70
2023-02-17T16:15:09.355Z,2.80
2023-02-17T16:18:41.878Z,4.50
2023-02-17T16:22:00.872Z,3.00
2023-02-17T16:25:24.107Z,3.40
2023-02-17T16:28:45.730Z,4.30
2023-02-17T16:32:05.944Z,5.30
2023-02-17T16:35:31.515Z,3.60
2023-02-17T16:38:53.021Z,3.90
2023-02-17T16:42:12.511Z,2.60
2023-02-17T16:45:51.976Z,2.30
2023-02-17T16:53:12.329Z,3.80
2023-02-17T16:56:37.035Z,4.20
2023-02-17T16:59:56.024Z,3.20
2023-02-17T17:03:12.009Z,3.50
2023-02-17T17:06:31.620Z,3.70
2023-02-17T17:10:15.320Z,2.30
2023-02-17T17:13:48.708Z,4.20
2023-02-17T17:17:11.729Z,3.20
2023-02-17T17:20:52.760Z,3.20
2023-02-17T17:24:18.091Z,2.60
2023-02-17T17:27:39.321Z,2.30
2023-02-17T17:31:04.027Z,2.70
2023-02-17T17:34:25.779Z,2.90
2023-02-17T17:37:44.294Z,2.60
2023-02-17T17:41:02.573Z,2.60
2023-02-17T17:44:28.232Z,1.50
2023-02-17T17:47:47.454Z,3.00
2023-02-17T17:51:06.468Z,3.10
2023-02-17T17:54:19.742Z,2.30
2023-02-17T17:57:48.044Z,2.40
2023-02-17T18:01:11.379Z,1.90
2023-02-17T18:04:37.152Z,3.00
2023-02-17T18:07:57.067Z,2.20
2023-02-17T18:11:19.621Z,3.50
2023-02-17T18:14:43.685Z,2.50
2023-02-17T18:17:55.941Z,2.60
2023-02-17T18:21:14.689Z,4.40
2023-02-17T18:24:33.306Z,2.50
2023-02-17T18:27:48.555Z,2.20
2023-02-17T18:31:01.056Z,2.90
2023-02-17T18:34:25.092Z,2.70
2023-02-17T18:37:45.403Z,3.00
2023-02-17T18:41:04.291Z,2.00
2023-02-17T18:44:23.748Z,3.50
2023-02-17T18:47:43.342Z,3.80
2023-02-17T18:50:53.578Z,3.20
2023-02-17T18:54:17.472Z,3.00
2023-02-17T18:57:36.842Z,3.10
2023-02-17T19:00:59.584Z,3.80
2023-02-17T19:04:19.287Z,2.50
2023-02-17T19:08:00.738Z,2.50
2023-02-17T19:11:23.992Z,3.90
2023-02-17T19:14:43.515Z,2.90
2023-02-17T19:18:12.209Z,2.60
2023-02-17T19:21:57.825Z,2.50
2023-02-17T19:25:20.958Z,4.40
2023-02-17T19:28:44.434Z,2.20
2023-02-17T19:32:07.867Z,2.40
2023-02-17T19:35:27.891Z,3.40
2023-02-17T19:38:47.302Z,2.80
2023-02-17T19:42:14.270Z,2.60
2023-02-17T19:45:38.582Z,4.10
2023-02-17T19:48:58.463Z,3.50
2023-02-17T19:52:17.976Z,3.70
2023-02-17T20:02:03.833Z,3.30
2023-02-17T20:05:27.469Z,3.80
2023-02-17T20:09:13.425Z,4.70
2023-02-17T20:12:32.252Z,4.40
2023-02-17T20:16:07.842Z,4.60
2023-02-17T20:19:29.460Z,4.70
2023-02-17T20:22:59.485Z,4.00
2023-02-17T20:26:32.841Z,3.20
2023-02-17T20:29:56.372Z,3.30
2023-02-17T20:33:21.793Z,3.40
2023-02-17T20:36:49.581Z,4.50
2023-02-17T20:40:08.065Z,2.90
2023-02-17T20:43:37.816Z,3.10
2023-02-17T20:47:02.908Z,3.60
2023-02-17T20:50:26.316Z,2.60
2023-02-17T20:53:48.458Z,2.00
2023-02-17T20:57:15.682Z,3.40
2023-02-17T21:00:54.616Z,3.40
2023-02-17T21:04:25.996Z,2.80
2023-02-17T21:07:44.513Z,2.20
2023-02-17T21:10:58.000Z,2.50
2023-02-17T21:14:26.858Z,2.20
2023-02-17T21:17:52.893Z,2.50
2023-02-17T21:21:22.920Z,2.00
2023-02-17T21:24:52.878Z,2.60
2023-02-17T21:28:15.239Z,2.90
2023-02-17T21:31:43.514Z,2.40
2023-02-17T21:35:08.260Z,2.80
2023-02-17T21:38:32.277Z,2.00
2023-02-17T21:41:51.299Z,3.10
2023-02-17T21:45:15.461Z,2.20
2023-02-17T21:48:42.201Z,2.10
2023-02-17T21:52:11.178Z,3.00
2023-02-17T21:55:34.975Z,3.10
2023-02-17T21:59:18.617Z,1.80
2023-02-17T22:02:44.225Z,1.90
2023-02-17T22:06:34.426Z,2.00
2023-02-17T22:10:00.674Z,2.80
2023-02-17T22:13:24.405Z,2.90
2023-02-17T22:16:33.948Z,2.30
2023-02-17T22:19:52.483Z,2.80
2023-02-17T22:23:15.742Z,1.60
2023-02-17T22:26:42.643Z,2.50
2023-02-17T22:30:09.393Z,2.30
2023-02-17T22:33:33.029Z,2.60
2023-02-17T22:36:59.910Z,2.30
2023-02-17T22:40:27.172Z,1.70
2023-02-17T22:43:51.636Z,2.90
2023-02-17T22:47:12.381Z,1.90
2023-02-17T22:50:39.173Z,2.30
2023-02-17T22:54:01.780Z,2.20
2023-02-17T22:57:36.569Z,2.00
2023-02-17T23:01:20.377Z,2.40
2023-02-17T23:04:38.871Z,1.60
2023-02-17T23:08:01.724Z,2.30
2023-02-17T23:11:46.627Z,2.20
2023-02-17T23:15:39.311Z,2.30
2023-02-17T23:19:05.345Z,2.40
2023-02-17T23:22:35.198Z,1.60
2023-02-17T23:33:59.213Z,2.50
2023-02-17T23:37:39.636Z,3.00
2023-02-17T23:40:54.334Z,2.50
2023-02-17T23:44:04.966Z,2.40
2023-02-17T23:47:27.986Z,2.60
2023-02-17T23:50:59.481Z,2.90
2023-02-17T23:54:22.729Z,2.40
2023-02-17T23:57:42.166Z,2.00
